Time;durP1;ratioP1;P1;durP2;ratioP2;P2;SDS_P1;SDS_P2;PMS_P1;PMS_P2;Temp;Humidity;BMP_temperature;BMP_pressure;BME280_temperature;BME280_humidity;BME280_pressure;Samples;Min_cycle;Max_cycle;Signal;HPM_P1;HPM_P2
2022/09/17 00:01:04;;;;;;;9.32;3.78;;;;;;;23.85;71.95;99434.41;5051746;28;20091;-82
2022/09/17 00:03:30;;;;;;;10.43;3.38;;;;;;;23.83;72.17;99429.19;5052305;28;20544;-81
2022/09/17 00:06:07;;;;;;;7.55;3.13;;;;;;;23.96;74.06;99441.97;5052145;28;20048;-81
2022/09/17 00:08:34;;;;;;;8.55;3.38;;;;;;;23.80;74.51;99426.66;5051758;28;20055;-85
2022/09/17 00:11:14;;;;;;;9.48;3.08;;;;;;;23.84;74.91;99432.66;5051980;28;20032;-84
2022/09/17 00:13:41;;;;;;;8.48;4.05;;;;;;;23.93;73.86;99442.94;5051772;28;20060;-84
2022/09/17 00:16:08;;;;;;;11.40;3.90;;;;;;;23.93;74.06;99432.41;5051565;28;20033;-85
2022/09/17 00:18:35;;;;;;;10.80;3.67;;;;;;;23.93;72.10;99429.75;5041765;28;20060;-84
2022/09/17 00:24:23;;;;;;;11.10;3.63;;;;;;;23.96;73.53;99428.78;5328806;22;20063;-80
2022/09/17 00:26:49;;;;;;;11.43;3.22;;;;;;;23.98;73.43;99437.53;5051966;28;20495;-80
2022/09/17 00:29:14;;;;;;;9.23;3.42;;;;;;;23.97;72.35;99435.78;5051886;28;20064;-80
2022/09/17 00:31:40;;;;;;;15.57;3.80;;;;;;;23.92;72.70;99430.69;5051524;28;20068;-78
2022/09/17 00:34:06;;;;;;;8.18;3.70;;;;;;;23.95;72.21;99435.84;5051503;28;20036;-79
2022/09/17 00:36:35;;;;;;;12.30;3.88;;;;;;;23.52;72.76;99438.13;5051649;28;20025;-79
2022/09/17 00:39:03;;;;;;;13.40;3.78;;;;;;;23.23;73.66;99407.50;5045172;28;20043;-79
2022/09/17 00:41:31;;;;;;;12.70;3.70;;;;;;;23.20;73.56;99416.34;5031842;28;20065;-80
2022/09/17 00:44:20;;;;;;;14.38;4.60;;;;;;;23.45;72.50;99420.78;5014133;28;20117;-79
2022/09/17 00:46:47;;;;;;;11.18;4.30;;;;;;;23.60;72.09;99424.69;5013926;28;20029;-80
2022/09/17 00:49:18;;;;;;;12.48;4.32;;;;;;;23.65;72.12;99424.53;5031487;28;20124;-80
2022/09/17 00:51:56;;;;;;;9.68;3.90;;;;;;;23.67;73.04;99417.47;5031586;28;20472;-81
2022/09/17 00:54:22;;;;;;;9.27;4.40;;;;;;;23.74;71.87;99433.00;5029935;28;20025;-81
2022/09/17 00:56:49;;;;;;;9.85;4.30;;;;;;;23.52;74.10;99427.59;5013763;28;20562;-80
2022/09/17 00:59:15;;;;;;;11.50;4.72;;;;;;;23.50;75.01;99441.72;5031238;28;20030;-79
2022/09/17 01:01:41;;;;;;;10.00;4.10;;;;;;;23.54;73.73;99452.13;5030850;28;20083;-80
2022/09/17 01:04:14;;;;;;;10.25;4.15;;;;;;;23.59;74.26;99444.91;5038900;28;20039;-80
2022/09/17 01:06:45;;;;;;;11.18;4.70;;;;;;;23.64;73.36;99434.22;5049087;28;20025;-79
2022/09/17 01:09:35;;;;;;;14.32;4.55;;;;;;;23.66;74.92;99434.16;5051077;28;20116;-81
2022/09/17 01:12:18;;;;;;;9.85;4.38;;;;;;;23.55;75.23;99448.56;5051184;28;20020;-80
2022/09/17 01:15:05;;;;;;;13.93;4.80;;;;;;;23.54;75.97;99440.69;5051261;28;20040;-80
2022/09/17 01:17:39;;;;;;;9.10;4.30;;;;;;;23.52;76.39;99439.91;5051023;28;20033;-80
2022/09/17 01:20:08;;;;;;;10.88;3.95;;;;;;;23.50;75.45;99439.09;5051118;28;20056;-80
2022/09/17 01:23:00;;;;;;;12.20;4.13;;;;;;;23.57;76.29;99424.81;5050816;28;20574;-79
2022/09/17 01:25:38;;;;;;;12.57;4.25;;;;;;;23.69;77.40;99420.88;5051044;28;20045;-80
2022/09/17 01:28:28;;;;;;;13.27;4.22;;;;;;;23.71;76.94;99414.66;5050630;28;20031;-80
2022/09/17 01:31:07;;;;;;;9.82;4.53;;;;;;;23.66;76.57;99424.47;5033074;28;20067;-79
2022/09/17 01:33:38;;;;;;;;;;;;;;;23.50;74.52;99412.75;5051349;28;20100;-80
2022/09/17 01:36:30;;;;;;;13.57;3.95;;;;;;;23.47;71.74;99424.25;5050887;28;19908;-79
2022/09/17 01:39:17;;;;;;;10.38;3.90;;;;;;;23.50;69.66;99425.91;5050902;28;20481;-80
2022/09/17 01:41:52;;;;;;;10.65;4.22;;;;;;;23.42;71.39;99436.72;5050353;28;20040;-78
2022/09/17 01:44:39;;;;;;;13.45;4.13;;;;;;;23.29;70.00;99440.66;5050815;28;20029;-77
2022/09/17 01:47:09;;;;;;;11.90;3.80;;;;;;;23.25;69.54;99435.50;5049909;28;20504;-79
2022/09/17 01:49:36;;;;;;;10.38;3.88;;;;;;;23.30;69.63;99422.16;5050342;28;20032;-79
2022/09/17 01:52:03;;;;;;;9.90;3.90;;;;;;;23.30;69.78;99424.78;5050120;28;20460;-79
2022/09/17 01:54:39;;;;;;;8.48;3.35;;;;;;;23.15;70.96;99396.31;5032700;28;20074;-80
2022/09/17 01:57:21;;;;;;;10.90;3.63;;;;;;;23.08;69.32;99411.44;5030305;28;20033;-79
2022/09/17 02:00:15;;;;;;;9.63;3.70;;;;;;;22.99;71.00;99414.34;4979003;28;20041;-79
2022/09/17 02:02:56;;;;;;;10.07;4.13;;;;;;;23.08;71.79;99420.19;5030410;28;20029;-79
2022/09/17 02:05:43;;;;;;;14.43;3.88;;;;;;;23.04;71.50;99413.31;5030462;28;20033;-80
2022/09/17 02:08:15;;;;;;;15.20;3.50;;;;;;;22.89;71.29;99403.25;5030388;28;20034;-78
2022/09/17 02:10:49;;;;;;;11.50;3.25;;;;;;;22.85;70.30;99399.00;5030219;28;20084;-77
2022/09/17 02:13:27;;;;;;;11.23;3.92;;;;;;;22.87;71.11;99412.97;4983196;28;20063;-81
2022/09/17 02:16:01;;;;;;;9.95;4.00;;;;;;;22.67;72.75;99374.09;5012409;28;20021;-77
2022/09/17 02:18:44;;;;;;;9.35;3.72;;;;;;;22.88;72.51;99423.44;5029978;28;20388;-78
2022/09/17 02:21:35;;;;;;;13.30;3.60;;;;;;;22.89;72.97;99408.50;5017117;28;20025;-79
2022/09/17 02:24:09;;;;;;;9.48;4.00;;;;;;;22.95;73.00;99403.06;5049847;28;20508;-80
2022/09/17 02:26:40;;;;;;;9.57;3.65;;;;;;;22.80;73.43;99379.84;5049659;28;20470;-76
2022/09/17 02:29:18;;;;;;;14.05;4.28;;;;;;;22.98;73.02;99391.56;5032395;28;20409;-81
2022/09/17 02:31:43;;;;;;;10.82;3.80;;;;;;;22.90;73.65;99407.59;5024897;28;20650;-83
2022/09/17 02:34:10;;;;;;;11.23;3.85;;;;;;;22.76;75.39;99408.88;5035997;28;20033;-83
2022/09/17 02:36:35;;;;;;;12.48;4.38;;;;;;;22.36;77.29;99396.03;5030068;28;20046;-87
2022/09/17 02:39:03;;;;;;;7.93;3.92;;;;;;;22.31;77.43;99375.13;5029568;28;20031;-81
2022/09/17 02:41:39;;;;;;;7.80;3.85;;;;;;;22.30;77.24;99404.94;5029888;28;20022;-81
2022/09/17 02:44:46;;;;;;;8.60;4.35;;;;;;;22.23;76.97;99398.13;5029886;28;20026;-80
2022/09/17 02:47:25;;;;;;;11.35;3.85;;;;;;;22.07;77.08;99363.53;4951933;28;20457;-82
2022/09/17 02:50:08;;;;;;;9.35;4.45;;;;;;;22.36;78.20;99396.03;4968494;28;20045;-78
2022/09/17 02:53:00;;;;;;;11.80;4.30;;;;;;;22.48;77.83;99394.81;4968359;28;20126;-78
2022/09/17 02:55:46;;;;;;;9.52;4.22;;;;;;;22.62;77.64;99406.66;4951816;29;20043;-83
2022/09/17 02:58:22;;;;;;;12.50;3.92;;;;;;;22.68;76.14;99394.22;4952794;29;20043;-80
2022/09/17 03:00:48;;;;;;;7.95;3.50;;;;;;;22.60;76.48;99384.81;4951525;28;20652;-78
2022/09/17 03:03:25;;;;;;;11.43;3.90;;;;;;;22.62;76.39;99392.66;4951408;28;20110;-81
2022/09/17 03:05:52;;;;;;;11.00;3.95;;;;;;;22.49;76.13;99375.53;4952396;29;20534;-79
2022/09/17 03:08:19;;;;;;;7.95;4.10;;;;;;;22.36;76.40;99362.69;4952414;29;20071;-80
2022/09/17 03:10:47;;;;;;;11.00;4.43;;;;;;;22.29;77.18;99361.16;4952458;29;20043;-79
2022/09/17 03:13:13;;;;;;;13.02;4.60;;;;;;;22.37;76.62;99360.91;4952187;29;20136;-84
2022/09/17 03:15:38;;;;;;;8.80;4.18;;;;;;;22.24;77.28;99352.53;4952319;29;20035;-80
2022/09/17 03:18:04;;;;;;;8.60;4.20;;;;;;;21.96;78.68;99330.53;4951114;29;21044;-80
2022/09/17 03:20:29;;;;;;;13.75;4.70;;;;;;;22.05;78.63;99354.84;4920301;29;20039;-83
2022/09/17 03:22:55;;;;;;;9.05;3.47;;;;;;;22.06;77.96;99354.78;4957619;28;20045;-76
2022/09/17 03:25:20;;;;;;;10.30;4.25;;;;;;;21.99;78.58;99347.97;5010207;28;20420;-81
2022/09/17 03:27:47;;;;;;;9.73;4.10;;;;;;;22.07;78.59;99353.00;5020067;28;20026;-77
2022/09/17 03:30:12;;;;;;;10.25;4.05;;;;;;;21.93;79.45;99356.91;5014565;28;20045;-80
2022/09/17 03:32:38;;;;;;;10.18;4.63;;;;;;;21.77;79.71;99368.72;4986976;28;20056;-78
2022/09/17 03:35:03;;;;;;;11.32;3.70;;;;;;;21.64;81.07;99366.41;5026589;28;20033;-75
2022/09/17 03:37:30;;;;;;;14.30;4.35;;;;;;;21.68;81.30;99375.06;5047010;28;20049;-78
2022/09/17 03:39:55;;;;;;;15.20;4.40;;;;;;;21.53;81.40;99349.19;5052329;28;20163;-79
2022/09/17 03:42:21;;;;;;;18.50;5.30;;;;;;;21.32;82.16;99339.22;5051634;28;20111;-79
2022/09/17 03:44:46;;;;;;;12.45;4.63;;;;;;;21.34;83.04;99368.91;5051630;28;20175;-79
2022/09/17 03:47:12;;;;;;;14.10;4.30;;;;;;;21.20;83.60;99354.38;5051600;28;20036;-79
2022/09/17 03:49:37;;;;;;;12.80;4.80;;;;;;;21.14;83.67;99348.41;5051656;28;20546;-78
2022/09/17 03:52:02;;;;;;;13.63;4.15;;;;;;;21.21;83.93;99351.75;5051911;28;20040;-81
2022/09/17 03:54:28;;;;;;;11.50;4.63;;;;;;;21.28;83.92;99362.94;5051840;28;20028;-78
2022/09/17 03:56:53;;;;;;;14.70;4.60;;;;;;;21.33;84.03;99351.44;5051195;28;20036;-79
2022/09/17 03:59:19;;;;;;;11.63;4.47;;;;;;;21.39;83.42;99345.16;5049752;28;21112;-82
2022/09/17 04:01:44;;;;;;;15.80;4.65;;;;;;;21.32;84.17;99341.84;5050635;28;20029;-80
2022/09/17 04:04:10;;;;;;;11.20;4.45;;;;;;;21.37;83.60;99346.09;5051343;28;20025;-82
2022/09/17 04:06:35;;;;;;;12.02;4.75;;;;;;;21.25;83.98;99318.41;5050827;28;20017;-79
2022/09/17 04:09:03;;;;;;;13.48;4.70;;;;;;;21.14;83.40;99298.53;5050293;28;20029;-78
2022/09/17 04:11:29;;;;;;;11.80;4.43;;;;;;;21.35;82.31;99296.28;5051801;28;20025;-80
2022/09/17 04:13:54;;;;;;;11.07;4.63;;;;;;;21.43;80.91;99294.31;5051531;28;20112;-85
2022/09/17 04:16:20;;;;;;;14.27;5.18;;;;;;;21.30;81.99;99292.91;5051606;28;20033;-79
2022/09/17 04:18:45;;;;;;;15.73;4.75;;;;;;;21.45;83.32;99308.25;5051892;28;20039;-82
2022/09/17 04:21:10;;;;;;;9.73;4.15;;;;;;;21.49;83.40;99314.28;5051719;28;20032;-81
2022/09/17 04:23:36;;;;;;;13.65;4.47;;;;;;;21.35;83.35;99291.03;5051886;28;20599;-80
2022/09/17 04:26:01;;;;;;;28.35;5.80;;;;;;;21.56;83.94;99315.00;5051744;28;20028;-80
2022/09/17 04:28:27;;;;;;;22.77;5.00;;;;;;;21.35;83.87;99272.63;5051502;28;20031;-80
2022/09/17 04:30:52;;;;;;;26.02;5.38;;;;;;;21.37;84.54;99310.22;5051685;28;20108;-81
2022/09/17 04:33:18;;;;;;;25.83;5.22;;;;;;;21.21;85.49;99335.13;5051384;28;20115;-80
2022/09/17 04:35:44;;;;;;;22.63;6.05;;;;;;;21.17;85.66;99335.22;5049614;28;20389;-79
2022/09/17 04:41:31;;;;;;;17.25;5.30;;;;;;;20.83;87.36;99277.44;5269685;22;20617;-80
2022/09/17 04:43:57;;;;;;;11.50;4.40;;;;;;;21.01;87.47;99324.22;5051941;28;20089;-80
2022/09/17 04:46:22;;;;;;;22.40;5.45;;;;;;;21.00;87.78;99326.91;5051770;28;20472;-82
2022/09/17 04:48:48;;;;;;;12.88;5.60;;;;;;;20.92;88.41;99306.09;5051710;28;20388;-87
2022/09/17 04:51:13;;;;;;;15.27;5.05;;;;;;;20.92;87.91;99302.59;5033768;28;20043;-90
2022/09/17 04:53:39;;;;;;;14.77;4.78;;;;;;;20.89;89.21;99339.41;5052284;28;20028;-92
2022/09/17 04:56:04;;;;;;;16.77;5.15;;;;;;;20.61;90.43;99303.28;5034131;28;20091;-92
2022/09/17 04:58:30;;;;;;;14.25;5.07;;;;;;;20.75;90.20;99314.38;5007979;28;20084;-82
2022/09/17 05:00:55;;;;;;;13.65;5.38;;;;;;;20.66;90.15;99325.00;5004150;28;20457;-79
2022/09/17 05:03:21;;;;;;;12.07;5.03;;;;;;;20.47;89.72;99330.69;4999686;28;20042;-79
2022/09/17 05:05:46;;;;;;;12.00;5.22;;;;;;;20.39;88.28;99314.25;4999867;28;20023;-80
2022/09/17 05:08:12;;;;;;;13.30;4.85;;;;;;;20.45;88.77;99308.88;4998061;28;20520;-82
2022/09/17 05:10:37;;;;;;;14.25;5.25;;;;;;;20.63;88.34;99299.72;4999891;28;20056;-83
2022/09/17 05:13:02;;;;;;;14.40;6.20;;;;;;;20.66;88.60;99280.44;4999269;28;20026;-82
2022/09/17 05:15:28;;;;;;;14.82;5.32;;;;;;;21.02;89.18;99322.44;4998352;28;20022;-82
2022/09/17 05:17:53;;;;;;;18.52;5.40;;;;;;;21.13;88.64;99317.84;4999374;28;20443;-83
2022/09/17 05:20:19;;;;;;;18.30;5.55;;;;;;;20.96;90.18;99304.22;4998702;28;20142;-84
2022/09/17 05:22:52;;;;;;;15.15;5.68;;;;;;;21.07;91.01;99331.09;4999002;28;20227;-84
2022/09/17 05:25:23;;;;;;;15.45;5.20;;;;;;;21.03;91.02;99329.44;5007511;28;20030;-82
2022/09/17 05:27:50;;;;;;;14.10;5.35;;;;;;;20.98;90.85;99312.94;4999683;28;20080;-82
2022/09/17 05:30:15;;;;;;;18.92;5.50;;;;;;;21.06;90.72;99318.88;4998155;28;20038;-82
2022/09/17 05:32:41;;;;;;;16.27;5.70;;;;;;;21.15;90.98;99320.41;4982707;28;20417;-83
2022/09/17 05:35:08;;;;;;;16.52;6.57;;;;;;;20.86;91.40;99324.63;5006037;28;20187;-81
2022/09/17 05:37:33;;;;;;;23.00;6.57;;;;;;;20.93;91.75;99320.06;5025589;28;20063;-82
2022/09/17 05:39:59;;;;;;;18.40;5.60;;;;;;;21.11;91.27;99326.63;5047357;28;20052;-84
2022/09/17 05:42:25;;;;;;;21.70;5.93;;;;;;;21.31;89.42;99318.25;5050539;28;20074;-81
2022/09/17 05:44:50;;;;;;;20.23;5.43;;;;;;;21.52;88.00;99316.84;5050706;28;20403;-81
2022/09/17 05:47:16;;;;;;;20.75;5.43;;;;;;;21.70;85.28;99305.00;5032972;28;20078;-81
2022/09/17 05:49:41;;;;;;;20.25;5.75;;;;;;;21.74;86.19;99290.00;5050105;28;20049;-84
2022/09/17 05:52:06;;;;;;;18.30;5.88;;;;;;;21.79;86.21;99281.09;5050345;28;20403;-84
2022/09/17 05:54:32;;;;;;;18.92;6.03;;;;;;;21.94;85.42;99278.94;5050475;28;20589;-86
2022/09/17 05:56:57;;;;;;;18.88;5.80;;;;;;;22.17;83.68;99291.41;5050240;28;20033;-86
2022/09/17 05:59:23;;;;;;;21.42;6.20;;;;;;;22.36;83.96;99294.34;5050410;28;20029;-83
2022/09/17 06:01:49;;;;;;;23.55;5.80;;;;;;;22.54;82.76;99289.44;5049948;28;20074;-83
2022/09/17 06:04:16;;;;;;;18.55;5.53;;;;;;;22.68;81.54;99296.88;5050245;28;20043;-90
2022/09/17 06:06:42;;;;;;;20.05;5.40;;;;;;;22.67;80.40;99269.75;5049910;28;20025;-86
2022/09/17 06:09:09;;;;;;;23.27;5.53;;;;;;;22.85;78.76;99283.19;5050197;28;20499;-85
2022/09/17 06:11:36;;;;;;;22.42;4.90;;;;;;;22.97;77.98;99295.97;5048301;28;20523;-87
2022/09/17 06:14:02;;;;;;;18.10;5.18;;;;;;;23.10;77.10;99289.38;5032003;28;20130;-82
2022/09/17 06:16:27;;;;;;;20.33;5.93;;;;;;;23.15;77.19;99297.09;5049609;28;20521;-79
2022/09/17 06:18:53;;;;;;;12.30;4.45;;;;;;;23.18;76.94;99304.94;5049891;28;20056;-78
2022/09/17 06:21:23;;;;;;;19.20;5.45;;;;;;;23.33;76.13;99310.59;5031886;28;20114;-79
2022/09/17 06:23:51;;;;;;;18.10;5.38;;;;;;;23.41;76.08;99311.19;5049698;28;20025;-79
2022/09/17 06:26:17;;;;;;;21.80;5.57;;;;;;;23.39;75.79;99313.88;5049679;28;20033;-78
2022/09/17 06:28:43;;;;;;;14.48;5.53;;;;;;;23.42;76.53;99320.81;5049412;28;20407;-77
2022/09/17 06:31:10;;;;;;;19.35;6.35;;;;;;;23.33;78.07;99336.91;5051928;28;20017;-78
2022/09/17 06:33:36;;;;;;;13.25;5.40;;;;;;;23.29;78.47;99335.31;5053064;28;20048;-79
2022/09/17 06:36:07;;;;;;;11.88;6.05;;;;;;;23.02;82.07;99343.19;5053101;28;20071;-75
2022/09/17 06:38:34;;;;;;;16.35;6.70;;;;;;;22.97;82.85;99343.34;5053287;28;20454;-78
2022/09/17 06:40:59;;;;;;;11.98;6.03;;;;;;;22.87;85.15;99334.88;5053226;28;20053;-79
2022/09/17 06:43:25;;;;;;;15.35;6.68;;;;;;;22.93;84.09;99334.69;5053119;28;20498;-80
2022/09/17 06:45:56;;;;;;;12.90;7.00;;;;;;;22.98;84.92;99349.44;5034904;28;20013;-79
2022/09/17 06:48:22;;;;;;;14.65;7.40;;;;;;;23.08;85.07;99346.47;5052773;28;20107;-77
2022/09/17 06:50:49;;;;;;;13.70;6.85;;;;;;;23.02;85.70;99349.31;5051496;28;20033;-79
2022/09/17 06:53:15;;;;;;;12.00;5.78;;;;;;;23.00;86.56;99355.53;5052346;28;20029;-77
2022/09/17 06:55:41;;;;;;;11.98;6.20;;;;;;;23.12;83.92;99364.81;5052295;28;20419;-83
2022/09/17 06:58:07;;;;;;;16.80;6.45;;;;;;;23.21;83.15;99344.31;5053142;28;20035;-85
2022/09/17 07:00:32;;;;;;;16.00;6.38;;;;;;;23.14;81.84;99315.59;5052729;28;20100;-79
2022/09/17 07:02:59;;;;;;;12.32;6.28;;;;;;;23.35;81.28;99348.28;5050471;28;20037;-81
2022/09/17 07:05:26;;;;;;;14.52;6.18;;;;;;;23.66;80.83;99355.13;5052028;28;20027;-79
2022/09/17 07:07:52;;;;;;;13.23;5.90;;;;;;;24.00;78.76;99357.47;5051458;28;20071;-83
2022/09/17 07:10:19;;;;;;;14.65;6.00;;;;;;;24.22;78.05;99351.38;5033820;28;20107;-77
2022/09/17 07:12:44;;;;;;;12.00;6.57;;;;;;;24.32;77.81;99355.38;5052817;28;20028;-80
2022/09/17 07:15:12;;;;;;;11.65;4.93;;;;;;;24.59;77.10;99354.41;5052908;28;20025;-82
2022/09/17 07:17:39;;;;;;;13.80;5.88;;;;;;;24.77;75.51;99356.34;5049765;28;20025;-81
2022/09/17 07:20:08;;;;;;;15.80;5.68;;;;;;;24.96;74.11;99356.47;5052088;28;20505;-83
2022/09/17 07:22:34;;;;;;;10.80;6.10;;;;;;;24.78;75.58;99350.13;5052268;28;20060;-80
2022/09/17 07:24:59;;;;;;;14.93;6.35;;;;;;;24.87;77.42;99343.63;5052344;28;20029;-82
2022/09/17 07:27:29;;;;;;;12.88;5.95;;;;;;;25.17;74.57;99357.38;5052504;28;20028;-82
2022/09/17 07:29:55;;;;;;;9.90;5.45;;;;;;;25.41;73.51;99359.06;5052582;28;20056;-83
2022/09/17 07:32:21;;;;;;;13.80;5.60;;;;;;;25.62;75.05;99344.09;5052358;28;20766;-84
2022/09/17 07:34:48;;;;;;;12.77;5.88;;;;;;;25.86;74.75;99334.22;5051609;28;20473;-80
2022/09/17 07:37:14;;;;;;;16.50;6.07;;;;;;;25.88;74.29;99307.72;5052212;28;20029;-86
2022/09/17 07:39:40;;;;;;;14.88;5.82;;;;;;;26.05;70.16;99313.09;5051261;28;20495;-82
2022/09/17 07:42:06;;;;;;;9.05;5.60;;;;;;;26.07;70.49;99313.06;5052227;28;20483;-80
2022/09/17 07:44:32;;;;;;;12.43;5.28;;;;;;;25.89;72.24;99327.94;5052258;28;20064;-78
2022/09/17 07:46:57;;;;;;;14.40;6.10;;;;;;;25.72;72.26;99333.97;5051461;28;20059;-79
2022/09/17 07:49:22;;;;;;;17.38;6.47;;;;;;;25.74;72.27;99340.06;5051590;28;20024;-79
2022/09/17 07:51:48;;;;;;;13.30;5.93;;;;;;;25.67;72.27;99310.38;5051455;28;20135;-81
2022/09/17 07:54:13;;;;;;;12.82;5.47;;;;;;;25.83;71.76;99315.84;5033609;28;20394;-79
2022/09/17 07:56:39;;;;;;;15.13;6.45;;;;;;;25.73;74.59;99296.88;5050903;28;20032;-78
2022/09/17 07:59:04;;;;;;;18.25;6.15;;;;;;;25.99;74.67;99335.41;5051611;28;20017;-80
2022/09/17 08:01:32;;;;;;;10.73;6.30;;;;;;;25.88;74.03;99300.63;5051433;28;20506;-76
2022/09/17 08:03:59;;;;;;;18.75;6.68;;;;;;;26.08;73.90;99326.22;5033460;28;20051;-78
2022/09/17 08:06:26;;;;;;;19.27;7.10;;;;;;;26.21;75.47;99321.22;5051323;28;20067;-78
2022/09/17 08:08:52;;;;;;;14.32;6.10;;;;;;;26.29;70.96;99300.56;5051085;28;20029;-80
2022/09/17 08:11:21;;;;;;;11.90;5.50;;;;;;;26.46;70.37;99307.69;5050717;28;20025;-82
2022/09/17 08:13:48;;;;;;;15.20;6.05;;;;;;;26.58;72.30;99270.97;5050845;28;20035;-81
2022/09/17 08:16:14;;;;;;;13.57;5.63;;;;;;;26.78;68.98;99302.69;5051776;28;20090;-76
2022/09/17 08:18:41;;;;;;;12.48;6.07;;;;;;;26.74;68.11;99290.53;5051513;28;20059;-76
2022/09/17 08:21:09;;;;;;;16.17;5.90;;;;;;;26.73;69.26;99291.44;5051623;28;20032;-75
2022/09/17 08:23:36;;;;;;;11.57;5.43;;;;;;;26.78;68.83;99304.44;5051741;28;20056;-75
2022/09/17 08:26:03;;;;;;;11.43;5.70;;;;;;;26.75;67.44;99289.56;5051319;28;20036;-76
2022/09/17 08:28:30;;;;;;;13.02;6.10;;;;;;;26.81;69.44;99288.44;5051307;28;20724;-76
2022/09/17 08:31:05;;;;;;;8.23;5.38;;;;;;;26.84;70.23;99296.22;5051496;28;20028;-75
2022/09/17 08:33:36;;;;;;;9.00;5.32;;;;;;;26.72;67.96;99291.50;5051461;28;20503;-75
2022/09/17 08:36:02;;;;;;;9.57;5.38;;;;;;;26.76;68.05;99288.66;5051000;28;20430;-76
2022/09/17 08:38:31;;;;;;;14.88;6.55;;;;;;;26.59;66.57;99252.41;4999193;28;20041;-77
2022/09/17 08:41:09;;;;;;;12.85;5.55;;;;;;;26.77;67.55;99282.41;5050871;28;20073;-77
2022/09/17 08:43:57;;;;;;;10.07;5.55;;;;;;;26.68;66.28;99272.25;5050440;28;20495;-75
2022/09/17 08:46:24;;;;;;;14.50;5.87;;;;;;;26.68;68.02;99266.97;4969876;28;20038;-75
2022/09/17 08:49:06;;;;;;;14.70;5.45;;;;;;;26.77;65.88;99265.69;4969301;28;20665;-75
2022/09/17 08:51:53;;;;;;;8.57;5.47;;;;;;;26.85;65.93;99268.78;4952647;28;20576;-74
2022/09/17 08:54:21;;;;;;;12.98;5.13;;;;;;;26.92;65.97;99278.16;4969829;28;20035;-75
2022/09/17 08:57:01;;;;;;;13.77;6.10;;;;;;;26.92;66.77;99295.84;4969811;28;20042;-76
2022/09/17 08:59:38;;;;;;;11.40;5.72;;;;;;;26.79;66.94;99303.53;4969284;28;20543;-75
2022/09/17 09:02:51;;;;;;;10.45;5.30;;;;;;;26.69;69.48;99278.41;4969489;28;20405;-76
2022/09/17 09:05:24;;;;;;;11.40;5.70;;;;;;;26.86;69.38;99285.56;4911882;29;20044;-75
2022/09/17 09:07:54;;;;;;;8.82;5.03;;;;;;;26.85;67.97;99279.38;4912022;29;20055;-75
2022/09/17 09:10:25;;;;;;;12.35;5.50;;;;;;;26.76;70.21;99261.31;4912317;29;20044;-75
2022/09/17 09:12:53;;;;;;;9.25;5.38;;;;;;;26.86;68.84;99267.03;4912153;29;20039;-75
2022/09/17 09:15:42;;;;;;;10.07;5.50;;;;;;;27.19;67.79;99250.34;4911859;29;20044;-74
2022/09/17 09:18:29;;;;;;;12.80;5.30;;;;;;;27.37;68.94;99246.75;4925182;29;20605;-75
2022/09/17 09:21:08;;;;;;;12.52;5.68;;;;;;;27.41;66.88;99242.16;4911711;29;20414;-74
2022/09/17 09:24:09;;;;;;;8.48;5.55;;;;;;;27.72;67.62;99245.84;4953679;28;20064;-75
2022/09/17 09:26:46;;;;;;;10.52;5.65;;;;;;;27.75;64.11;99264.22;4988755;28;20030;-74
2022/09/17 09:29:50;;;;;;;6.82;4.75;;;;;;;28.00;63.07;99257.59;4988790;28;20425;-75
2022/09/17 09:32:57;;;;;;;8.50;5.05;;;;;;;28.19;63.54;99255.69;4988449;28;20062;-76
2022/09/17 09:35:27;;;;;;;7.82;5.07;;;;;;;28.22;65.61;99255.50;4930618;29;20634;-76
2022/09/17 09:37:58;;;;;;;;;;;;;;;28.11;61.56;99255.22;4941772;29;20044;-76
2022/09/17 09:40:43;;;;;;;11.52;5.18;;;;;;;28.19;59.68;99242.41;4945044;28;19933;-76
2022/09/17 09:43:38;;;;;;;9.75;4.82;;;;;;;27.99;60.71;99239.97;4987916;28;20488;-76
2022/09/17 09:46:21;;;;;;;10.98;5.32;;;;;;;27.92;60.81;99242.09;4988154;28;20046;-75
2022/09/17 09:49:33;;;;;;;10.82;5.20;;;;;;;27.80;59.77;99246.25;4988437;28;20517;-76
2022/09/17 09:52:12;;;;;;;10.05;4.90;;;;;;;27.71;61.51;99247.63;4949447;28;20027;-75
2022/09/17 09:54:55;;;;;;;11.48;4.78;;;;;;;27.70;59.84;99229.16;4933237;29;20035;-76
2022/09/17 09:57:36;;;;;;;10.40;4.60;;;;;;;28.08;58.53;99239.50;4949375;29;20043;-75
2022/09/17 10:00:29;;;;;;;9.13;4.60;;;;;;;28.25;57.83;99231.44;4949630;29;20569;-75
2022/09/17 10:03:31;;;;;;;10.68;4.82;;;;;;;28.56;57.33;99221.75;4950372;28;20095;-79
2022/09/17 10:06:02;;;;;;;9.63;4.40;;;;;;;28.79;58.73;99221.38;4877234;29;20112;-78
2022/09/17 10:08:31;;;;;;;8.80;4.63;;;;;;;28.99;57.28;99229.00;4893602;29;20595;-77
2022/09/17 10:11:01;;;;;;;13.38;4.63;;;;;;;28.91;55.85;99198.53;4880851;29;20042;-77
2022/09/17 10:13:30;;;;;;;12.15;4.95;;;;;;;28.96;56.87;99172.53;4861276;29;20419;-78
2022/09/17 10:15:56;;;;;;;10.25;4.32;;;;;;;29.30;57.18;99181.16;4874463;29;20548;-78
2022/09/17 10:18:23;;;;;;;10.25;4.57;;;;;;;29.50;57.54;99188.75;4857480;29;20056;-80
2022/09/17 10:20:51;;;;;;;10.82;4.50;;;;;;;29.75;53.86;99187.19;4858322;29;20577;-78
2022/09/17 10:23:18;;;;;;;12.95;4.90;;;;;;;29.96;53.65;99171.72;4858797;29;20548;-78
2022/09/17 10:25:44;;;;;;;8.77;4.30;;;;;;;29.91;50.24;99167.63;4876617;29;20040;-77
2022/09/17 10:28:32;;;;;;;10.15;4.47;;;;;;;29.80;49.88;99174.47;4895927;29;20096;-77
2022/09/17 10:31:02;;;;;;;11.03;4.20;;;;;;;29.99;50.00;99168.00;4895707;29;20075;-78
2022/09/17 10:33:29;;;;;;;10.32;4.18;;;;;;;30.12;48.73;99162.72;4858569;29;20140;-77
2022/09/17 10:36:05;;;;;;;11.30;4.43;;;;;;;30.26;49.27;99159.16;4858427;29;20076;-76
2022/09/17 10:38:39;;;;;;;10.48;4.40;;;;;;;30.47;47.61;99154.22;4858105;29;20038;-84
2022/09/17 10:41:15;;;;;;;11.85;3.97;;;;;;;30.66;47.79;99151.19;4860208;29;20524;-79
2022/09/17 10:43:41;;;;;;;9.60;3.97;;;;;;;30.72;47.89;99126.81;4964379;28;20038;-78
2022/09/17 10:46:13;;;;;;;10.50;3.53;;;;;;;30.98;46.73;99145.47;4971818;28;20045;-78
2022/09/17 10:48:43;;;;;;;9.30;3.67;;;;;;;31.07;49.27;99130.69;4971725;28;20073;-78
2022/09/17 10:51:10;;;;;;;12.18;4.15;;;;;;;31.24;45.38;99135.69;4976016;28;20046;-78
2022/09/17 10:53:55;;;;;;;8.98;4.07;;;;;;;31.49;44.43;99133.06;4975050;28;20034;-77
2022/09/17 10:56:30;;;;;;;12.45;3.90;;;;;;;31.61;41.00;99137.53;4991162;28;20485;-77
2022/09/17 10:59:20;;;;;;;12.00;3.50;;;;;;;31.77;39.91;99121.28;4991178;28;20040;-78
2022/09/17 11:01:51;;;;;;;11.57;2.90;;;;;;;31.89;43.28;99100.84;4991054;28;20037;-77
2022/09/17 11:04:26;;;;;;;12.73;3.65;;;;;;;32.22;42.86;99121.53;5017340;28;20041;-77
2022/09/17 11:06:54;;;;;;;9.77;3.47;;;;;;;32.33;38.33;99107.38;5052909;28;20033;-78
2022/09/17 11:09:49;;;;;;;9.40;3.50;;;;;;;32.25;38.03;99107.97;5035025;28;20032;-78
2022/09/17 11:12:14;;;;;;;9.05;3.45;;;;;;;32.21;39.19;99102.97;4951649;28;20466;-78
2022/09/17 11:14:42;;;;;;;14.48;3.60;;;;;;;32.12;43.10;99106.31;4950836;28;20151;-77
2022/09/17 11:17:48;;;;;;;8.07;3.40;;;;;;;32.00;43.41;99097.38;4952210;28;20043;-77
2022/09/17 11:20:41;;;;;;;14.20;3.95;;;;;;;31.80;40.12;99082.84;4913710;29;20280;-79
2022/09/17 11:23:38;;;;;;;12.80;3.50;;;;;;;31.75;40.25;99085.84;4864157;29;20064;-76
2022/09/17 11:26:30;;;;;;;7.65;3.15;;;;;;;31.61;39.61;99063.66;4876330;29;20032;-80
2022/09/17 11:29:01;;;;;;;11.25;3.33;;;;;;;31.75;40.14;99080.53;4875841;29;20040;-79
2022/09/17 11:31:26;;;;;;;9.80;3.28;;;;;;;31.74;41.42;99070.81;4875300;29;20056;-78
2022/09/17 11:34:09;;;;;;;8.90;3.28;;;;;;;31.64;39.51;99064.44;4876136;29;20045;-78
2022/09/17 11:36:56;;;;;;;10.48;3.75;;;;;;;31.56;43.06;99055.16;4875885;29;20056;-78
2022/09/17 11:39:37;;;;;;;13.02;4.18;;;;;;;31.60;42.21;99045.13;4876053;29;20094;-77
2022/09/17 11:42:13;;;;;;;10.05;3.38;;;;;;;31.70;41.36;99051.53;4875756;29;20049;-78
2022/09/17 11:44:51;;;;;;;10.75;3.70;;;;;;;31.83;43.38;99043.47;4875935;29;20098;-77
2022/09/17 11:47:19;;;;;;;11.80;3.83;;;;;;;31.99;42.09;99035.16;4875656;29;20158;-77
2022/09/17 11:50:08;;;;;;;9.02;3.50;;;;;;;32.24;41.73;99028.81;4873129;29;20041;-77
2022/09/17 11:52:45;;;;;;;14.80;3.50;;;;;;;32.51;44.50;99021.47;4893831;29;20048;-77
2022/09/17 11:55:16;;;;;;;11.05;3.83;;;;;;;32.57;41.55;99023.66;4895788;29;20036;-77